sensor_id;sensor_type;location;lat;lon;timestamp;P1;durP1;ratioP1;P2;durP2;ratioP2
14472;SDS011;7322;50.872;4.386;2022-07-23T00:01:24;17.57;;;15.77;;
14472;SDS011;7322;50.872;4.386;2022-07-23T00:03:52;18.90;;;15.40;;
14472;SDS011;7322;50.872;4.386;2022-07-23T00:06:21;16.77;;;15.07;;
14472;SDS011;7322;50.872;4.386;2022-07-23T00:08:49;19.27;;;15.53;;
14472;SDS011;7322;50.872;4.386;2022-07-23T00:11:17;18.40;;;16.20;;
14472;SDS011;7322;50.872;4.386;2022-07-23T00:13:44;17.87;;;16.13;;
14472;SDS011;7322;50.872;4.386;2022-07-23T00:16:11;17.23;;;15.63;;
14472;SDS011;7322;50.872;4.386;2022-07-23T00:18:38;18.73;;;16.73;;
14472;SDS011;7322;50.872;4.386;2022-07-23T00:21:06;19.80;;;17.70;;
14472;SDS011;7322;50.872;4.386;2022-07-23T00:23:35;19.20;;;17.23;;
14472;SDS011;7322;50.872;4.386;2022-07-23T00:26:02;18.73;;;16.73;;
14472;SDS011;7322;50.872;4.386;2022-07-23T00:28:33;19.57;;;17.57;;
14472;SDS011;7322;50.872;4.386;2022-07-23T00:31:01;18.47;;;16.57;;
14472;SDS011;7322;50.872;4.386;2022-07-23T00:33:28;20.47;;;17.77;;
14472;SDS011;7322;50.872;4.386;2022-07-23T00:35:56;19.60;;;17.50;;
14472;SDS011;7322;50.872;4.386;2022-07-23T00:38:23;18.97;;;16.97;;
14472;SDS011;7322;50.872;4.386;2022-07-23T00:40:51;19.30;;;17.47;;
14472;SDS011;7322;50.872;4.386;2022-07-23T00:43:19;19.83;;;17.70;;
14472;SDS011;7322;50.872;4.386;2022-07-23T00:45:46;20.87;;;17.67;;
14472;SDS011;7322;50.872;4.386;2022-07-23T00:48:13;20.03;;;18.00;;
14472;SDS011;7322;50.872;4.386;2022-07-23T00:50:40;20.23;;;17.77;;
14472;SDS011;7322;50.872;4.386;2022-07-23T00:53:08;19.63;;;17.63;;
14472;SDS011;7322;50.872;4.386;2022-07-23T00:55:36;20.20;;;18.20;;
14472;SDS011;7322;50.872;4.386;2022-07-23T00:58:06;21.07;;;18.83;;
14472;SDS011;7322;50.872;4.386;2022-07-23T01:00:33;21.53;;;18.00;;
14472;SDS011;7322;50.872;4.386;2022-07-23T01:03:00;21.37;;;18.40;;
14472;SDS011;7322;50.872;4.386;2022-07-23T01:05:27;21.20;;;18.80;;
14472;SDS011;7322;50.872;4.386;2022-07-23T01:07:55;20.27;;;18.17;;
14472;SDS011;7322;50.872;4.386;2022-07-23T01:10:23;20.60;;;18.53;;
14472;SDS011;7322;50.872;4.386;2022-07-23T01:12:59;21.40;;;19.13;;
14472;SDS011;7322;50.872;4.386;2022-07-23T01:15:30;20.93;;;18.33;;
14472;SDS011;7322;50.872;4.386;2022-07-23T01:18:00;21.33;;;19.07;;
14472;SDS011;7322;50.872;4.386;2022-07-23T01:20:28;21.60;;;19.40;;
14472;SDS011;7322;50.872;4.386;2022-07-23T01:22:56;21.73;;;19.43;;
14472;SDS011;7322;50.872;4.386;2022-07-23T01:25:25;22.67;;;20.30;;
14472;SDS011;7322;50.872;4.386;2022-07-23T01:27:52;21.63;;;19.27;;
14472;SDS011;7322;50.872;4.386;2022-07-23T01:30:20;22.87;;;19.63;;
14472;SDS011;7322;50.872;4.386;2022-07-23T01:32:53;24.30;;;19.77;;
14472;SDS011;7322;50.872;4.386;2022-07-23T01:35:22;27.13;;;20.70;;
14472;SDS011;7322;50.872;4.386;2022-07-23T01:37:49;22.10;;;19.43;;
14472;SDS011;7322;50.872;4.386;2022-07-23T01:40:23;22.27;;;19.60;;
14472;SDS011;7322;50.872;4.386;2022-07-23T01:43:00;22.20;;;19.80;;
14472;SDS011;7322;50.872;4.386;2022-07-23T01:45:29;22.13;;;19.73;;
14472;SDS011;7322;50.872;4.386;2022-07-23T01:50:29;22.60;;;20.07;;
14472;SDS011;7322;50.872;4.386;2022-07-23T01:52:56;22.60;;;20.40;;
14472;SDS011;7322;50.872;4.386;2022-07-23T01:55:31;22.07;;;19.67;;
14472;SDS011;7322;50.872;4.386;2022-07-23T01:57:59;23.30;;;21.00;;
14472;SDS011;7322;50.872;4.386;2022-07-23T02:00:26;24.47;;;20.87;;
14472;SDS011;7322;50.872;4.386;2022-07-23T02:02:53;23.30;;;20.07;;
14472;SDS011;7322;50.872;4.386;2022-07-23T02:05:20;23.33;;;20.40;;
14472;SDS011;7322;50.872;4.386;2022-07-23T02:07:47;27.73;;;20.77;;
14472;SDS011;7322;50.872;4.386;2022-07-23T02:10:14;23.20;;;20.70;;
14472;SDS011;7322;50.872;4.386;2022-07-23T02:12:44;22.07;;;19.83;;
14472;SDS011;7322;50.872;4.386;2022-07-23T02:15:13;22.60;;;20.27;;
14472;SDS011;7322;50.872;4.386;2022-07-23T02:17:40;23.80;;;21.17;;
14472;SDS011;7322;50.872;4.386;2022-07-23T02:20:09;23.70;;;20.87;;
14472;SDS011;7322;50.872;4.386;2022-07-23T02:22:37;24.17;;;21.63;;
14472;SDS011;7322;50.872;4.386;2022-07-23T02:25:11;22.27;;;19.87;;
14472;SDS011;7322;50.872;4.386;2022-07-23T02:27:50;23.93;;;21.00;;
14472;SDS011;7322;50.872;4.386;2022-07-23T02:30:17;23.20;;;20.63;;
14472;SDS011;7322;50.872;4.386;2022-07-23T02:32:44;23.80;;;21.20;;
14472;SDS011;7322;50.872;4.386;2022-07-23T02:35:11;24.57;;;21.97;;
14472;SDS011;7322;50.872;4.386;2022-07-23T02:37:38;25.33;;;22.17;;
14472;SDS011;7322;50.872;4.386;2022-07-23T02:40:11;26.33;;;21.97;;
14472;SDS011;7322;50.872;4.386;2022-07-23T02:42:38;23.23;;;20.77;;
14472;SDS011;7322;50.872;4.386;2022-07-23T02:47:39;23.17;;;20.67;;
14472;SDS011;7322;50.872;4.386;2022-07-23T02:50:07;25.37;;;22.67;;
14472;SDS011;7322;50.872;4.386;2022-07-23T02:52:36;25.50;;;20.80;;
14472;SDS011;7322;50.872;4.386;2022-07-23T02:55:04;25.50;;;20.73;;
14472;SDS011;7322;50.872;4.386;2022-07-23T02:57:31;22.50;;;19.77;;
14472;SDS011;7322;50.872;4.386;2022-07-23T03:00:02;25.67;;;20.50;;
14472;SDS011;7322;50.872;4.386;2022-07-23T03:02:32;24.00;;;20.77;;
14472;SDS011;7322;50.872;4.386;2022-07-23T03:04:59;22.43;;;20.23;;
14472;SDS011;7322;50.872;4.386;2022-07-23T03:07:27;22.73;;;20.37;;
14472;SDS011;7322;50.872;4.386;2022-07-23T03:09:54;22.93;;;20.43;;
14472;SDS011;7322;50.872;4.386;2022-07-23T03:12:22;24.53;;;21.00;;
14472;SDS011;7322;50.872;4.386;2022-07-23T03:14:56;25.57;;;21.67;;
14472;SDS011;7322;50.872;4.386;2022-07-23T03:17:24;25.30;;;21.00;;
14472;SDS011;7322;50.872;4.386;2022-07-23T03:19:52;24.57;;;21.50;;
14472;SDS011;7322;50.872;4.386;2022-07-23T03:22:19;23.20;;;20.90;;
14472;SDS011;7322;50.872;4.386;2022-07-23T03:24:46;24.27;;;21.17;;
14472;SDS011;7322;50.872;4.386;2022-07-23T03:27:22;23.67;;;21.00;;
14472;SDS011;7322;50.872;4.386;2022-07-23T03:29:51;24.20;;;21.60;;
14472;SDS011;7322;50.872;4.386;2022-07-23T03:32:19;24.20;;;20.40;;
14472;SDS011;7322;50.872;4.386;2022-07-23T03:34:46;23.17;;;20.77;;
14472;SDS011;7322;50.872;4.386;2022-07-23T03:37:15;24.33;;;21.73;;
14472;SDS011;7322;50.872;4.386;2022-07-23T03:39:42;23.60;;;21.07;;
14472;SDS011;7322;50.872;4.386;2022-07-23T03:42:09;25.33;;;20.40;;
14472;SDS011;7322;50.872;4.386;2022-07-23T03:44:37;21.73;;;19.47;;
14472;SDS011;7322;50.872;4.386;2022-07-23T03:47:04;25.87;;;20.93;;
14472;SDS011;7322;50.872;4.386;2022-07-23T03:49:31;23.13;;;20.73;;
14472;SDS011;7322;50.872;4.386;2022-07-23T03:51:59;22.70;;;19.97;;
14472;SDS011;7322;50.872;4.386;2022-07-23T03:54:28;25.40;;;21.20;;
14472;SDS011;7322;50.872;4.386;2022-07-23T03:56:55;24.27;;;21.50;;
14472;SDS011;7322;50.872;4.386;2022-07-23T03:59:22;27.43;;;21.27;;
14472;SDS011;7322;50.872;4.386;2022-07-23T04:01:49;23.73;;;20.90;;
14472;SDS011;7322;50.872;4.386;2022-07-23T04:04:16;23.90;;;21.40;;
14472;SDS011;7322;50.872;4.386;2022-07-23T04:06:43;23.63;;;20.63;;
14472;SDS011;7322;50.872;4.386;2022-07-23T04:09:10;25.00;;;22.07;;
14472;SDS011;7322;50.872;4.386;2022-07-23T04:11:38;25.77;;;20.57;;
14472;SDS011;7322;50.872;4.386;2022-07-23T04:14:05;22.27;;;19.97;;
14472;SDS011;7322;50.872;4.386;2022-07-23T04:16:32;26.47;;;20.43;;
14472;SDS011;7322;50.872;4.386;2022-07-23T04:18:59;23.20;;;19.20;;
14472;SDS011;7322;50.872;4.386;2022-07-23T04:21:26;21.83;;;19.53;;
14472;SDS011;7322;50.872;4.386;2022-07-23T04:23:53;23.87;;;19.93;;
14472;SDS011;7322;50.872;4.386;2022-07-23T04:26:20;22.00;;;18.97;;
14472;SDS011;7322;50.872;4.386;2022-07-23T04:28:48;22.03;;;19.33;;
14472;SDS011;7322;50.872;4.386;2022-07-23T04:31:15;23.60;;;18.40;;
14472;SDS011;7322;50.872;4.386;2022-07-23T04:33:42;22.30;;;18.53;;
14472;SDS011;7322;50.872;4.386;2022-07-23T04:36:09;21.90;;;19.50;;
14472;SDS011;7322;50.872;4.386;2022-07-23T04:38:36;22.57;;;18.83;;
14472;SDS011;7322;50.872;4.386;2022-07-23T04:41:03;26.23;;;19.07;;
14472;SDS011;7322;50.872;4.386;2022-07-23T04:43:30;22.23;;;19.07;;
14472;SDS011;7322;50.872;4.386;2022-07-23T04:46:00;20.43;;;18.33;;
14472;SDS011;7322;50.872;4.386;2022-07-23T04:48:27;20.27;;;17.17;;
14472;SDS011;7322;50.872;4.386;2022-07-23T04:50:54;21.30;;;17.70;;
14472;SDS011;7322;50.872;4.386;2022-07-23T04:53:21;21.23;;;17.80;;
14472;SDS011;7322;50.872;4.386;2022-07-23T04:55:48;20.67;;;17.50;;
14472;SDS011;7322;50.872;4.386;2022-07-23T04:58:15;17.93;;;16.13;;
14472;SDS011;7322;50.872;4.386;2022-07-23T05:00:42;22.90;;;17.27;;
14472;SDS011;7322;50.872;4.386;2022-07-23T05:03:11;19.37;;;16.07;;
14472;SDS011;7322;50.872;4.386;2022-07-23T05:05:38;18.53;;;16.70;;
14472;SDS011;7322;50.872;4.386;2022-07-23T05:08:05;19.10;;;16.47;;
14472;SDS011;7322;50.872;4.386;2022-07-23T05:10:32;18.13;;;16.23;;
14472;SDS011;7322;50.872;4.386;2022-07-23T05:12:59;19.00;;;16.33;;
14472;SDS011;7322;50.872;4.386;2022-07-23T05:15:26;18.53;;;16.47;;
14472;SDS011;7322;50.872;4.386;2022-07-23T05:17:53;18.00;;;16.03;;
14472;SDS011;7322;50.872;4.386;2022-07-23T05:20:21;18.50;;;16.00;;
14472;SDS011;7322;50.872;4.386;2022-07-23T05:22:49;17.80;;;15.87;;
14472;SDS011;7322;50.872;4.386;2022-07-23T05:25:17;20.47;;;16.10;;
14472;SDS011;7322;50.872;4.386;2022-07-23T05:27:44;17.77;;;15.00;;
14472;SDS011;7322;50.872;4.386;2022-07-23T05:30:12;17.27;;;14.73;;
14472;SDS011;7322;50.872;4.386;2022-07-23T05:32:41;15.07;;;13.47;;
14472;SDS011;7322;50.872;4.386;2022-07-23T05:35:14;17.30;;;15.40;;
14472;SDS011;7322;50.872;4.386;2022-07-23T05:37:42;17.30;;;15.20;;
14472;SDS011;7322;50.872;4.386;2022-07-23T05:40:10;16.93;;;15.00;;
14472;SDS011;7322;50.872;4.386;2022-07-23T05:42:40;17.67;;;14.87;;
14472;SDS011;7322;50.872;4.386;2022-07-23T05:45:08;19.27;;;15.67;;
14472;SDS011;7322;50.872;4.386;2022-07-23T05:47:39;17.10;;;15.27;;
14472;SDS011;7322;50.872;4.386;2022-07-23T05:50:07;18.40;;;15.03;;
14472;SDS011;7322;50.872;4.386;2022-07-23T05:52:34;17.93;;;15.03;;
14472;SDS011;7322;50.872;4.386;2022-07-23T05:55:03;16.83;;;15.03;;
14472;SDS011;7322;50.872;4.386;2022-07-23T05:57:31;17.40;;;15.40;;
14472;SDS011;7322;50.872;4.386;2022-07-23T05:59:58;16.43;;;14.67;;
14472;SDS011;7322;50.872;4.386;2022-07-23T06:02:26;16.40;;;14.60;;
14472;SDS011;7322;50.872;4.386;2022-07-23T06:04:53;16.30;;;13.97;;
14472;SDS011;7322;50.872;4.386;2022-07-23T06:07:20;17.50;;;14.37;;
14472;SDS011;7322;50.872;4.386;2022-07-23T06:09:47;15.80;;;14.10;;
14472;SDS011;7322;50.872;4.386;2022-07-23T06:12:15;15.10;;;13.70;;
14472;SDS011;7322;50.872;4.386;2022-07-23T06:14:43;13.80;;;12.33;;
14472;SDS011;7322;50.872;4.386;2022-07-23T06:17:10;13.83;;;12.37;;
14472;SDS011;7322;50.872;4.386;2022-07-23T06:19:37;13.33;;;11.97;;
14472;SDS011;7322;50.872;4.386;2022-07-23T06:22:04;12.57;;;11.18;;
14472;SDS011;7322;50.872;4.386;2022-07-23T06:24:31;12.15;;;11.02;;
14472;SDS011;7322;50.872;4.386;2022-07-23T06:26:57;12.32;;;11.13;;
14472;SDS011;7322;50.872;4.386;2022-07-23T06:29:26;11.90;;;10.70;;
14472;SDS011;7322;50.872;4.386;2022-07-23T06:31:53;11.82;;;10.73;;
14472;SDS011;7322;50.872;4.386;2022-07-23T06:34:20;11.57;;;10.48;;
14472;SDS011;7322;50.872;4.386;2022-07-23T06:36:47;12.32;;;10.32;;
14472;SDS011;7322;50.872;4.386;2022-07-23T06:39:13;11.68;;;10.57;;
14472;SDS011;7322;50.872;4.386;2022-07-23T06:41:40;11.45;;;10.35;;
14472;SDS011;7322;50.872;4.386;2022-07-23T06:44:08;11.23;;;10.23;;
14472;SDS011;7322;50.872;4.386;2022-07-23T06:46:36;11.65;;;10.55;;
14472;SDS011;7322;50.872;4.386;2022-07-23T06:49:03;11.48;;;10.30;;
14472;SDS011;7322;50.872;4.386;2022-07-23T06:51:30;11.45;;;10.45;;
14472;SDS011;7322;50.872;4.386;2022-07-23T06:53:57;12.02;;;10.88;;
14472;SDS011;7322;50.872;4.386;2022-07-23T06:56:24;10.75;;;9.65;;
14472;SDS011;7322;50.872;4.386;2022-07-23T06:58:51;10.73;;;9.77;;
14472;SDS011;7322;50.872;4.386;2022-07-23T07:01:18;10.90;;;9.90;;
14472;SDS011;7322;50.872;4.386;2022-07-23T07:03:47;11.52;;;10.32;;
14472;SDS011;7322;50.872;4.386;2022-07-23T07:06:15;11.20;;;10.27;;
14472;SDS011;7322;50.872;4.386;2022-07-23T07:08:42;11.77;;;10.73;;
14472;SDS011;7322;50.872;4.386;2022-07-23T07:11:09;11.75;;;10.68;;
14472;SDS011;7322;50.872;4.386;2022-07-23T07:13:36;12.50;;;11.27;;
14472;SDS011;7322;50.872;4.386;2022-07-23T07:16:04;11.77;;;10.70;;
14472;SDS011;7322;50.872;4.386;2022-07-23T07:18:31;14.30;;;12.30;;
14472;SDS011;7322;50.872;4.386;2022-07-23T07:20:59;10.75;;;9.85;;
14472;SDS011;7322;50.872;4.386;2022-07-23T07:23:26;12.43;;;11.40;;
14472;SDS011;7322;50.872;4.386;2022-07-23T07:25:53;10.90;;;9.93;;
14472;SDS011;7322;50.872;4.386;2022-07-23T07:28:20;11.27;;;10.18;;
14472;SDS011;7322;50.872;4.386;2022-07-23T07:30:47;11.15;;;10.18;;
14472;SDS011;7322;50.872;4.386;2022-07-23T07:33:14;11.25;;;10.18;;
14472;SDS011;7322;50.872;4.386;2022-07-23T07:35:41;11.85;;;10.70;;
14472;SDS011;7322;50.872;4.386;2022-07-23T07:38:09;10.98;;;10.07;;
14472;SDS011;7322;50.872;4.386;2022-07-23T07:40:36;11.35;;;10.18;;
14472;SDS011;7322;50.872;4.386;2022-07-23T07:43:03;11.23;;;9.25;;
14472;SDS011;7322;50.872;4.386;2022-07-23T07:45:31;10.40;;;9.40;;
14472;SDS011;7322;50.872;4.386;2022-07-23T07:47:58;10.18;;;9.25;;
14472;SDS011;7322;50.872;4.386;2022-07-23T07:50:25;10.05;;;9.05;;
14472;SDS011;7322;50.872;4.386;2022-07-23T07:52:53;9.30;;;8.30;;
14472;SDS011;7322;50.872;4.386;2022-07-23T07:55:21;10.82;;;8.98;;
14472;SDS011;7322;50.872;4.386;2022-07-23T07:57:49;10.00;;;9.07;;
14472;SDS011;7322;50.872;4.386;2022-07-23T08:00:16;9.85;;;8.82;;
14472;SDS011;7322;50.872;4.386;2022-07-23T08:02:44;11.43;;;9.20;;
14472;SDS011;7322;50.872;4.386;2022-07-23T08:05:13;11.45;;;8.88;;
14472;SDS011;7322;50.872;4.386;2022-07-23T08:07:44;8.98;;;8.07;;
14472;SDS011;7322;50.872;4.386;2022-07-23T08:10:11;9.60;;;8.60;;
14472;SDS011;7322;50.872;4.386;2022-07-23T08:12:40;9.82;;;8.65;;
14472;SDS011;7322;50.872;4.386;2022-07-23T08:15:10;10.60;;;8.25;;
14472;SDS011;7322;50.872;4.386;2022-07-23T08:17:37;8.73;;;7.82;;
14472;SDS011;7322;50.872;4.386;2022-07-23T08:20:05;9.13;;;8.02;;
14472;SDS011;7322;50.872;4.386;2022-07-23T08:22:46;9.98;;;8.95;;
14472;SDS011;7322;50.872;4.386;2022-07-23T08:25:15;14.02;;;8.70;;
14472;SDS011;7322;50.872;4.386;2022-07-23T08:27:44;9.45;;;8.55;;
14472;SDS011;7322;50.872;4.386;2022-07-23T08:30:11;9.90;;;7.97;;
14472;SDS011;7322;50.872;4.386;2022-07-23T08:32:48;10.73;;;7.85;;
14472;SDS011;7322;50.872;4.386;2022-07-23T08:35:23;8.20;;;7.38;;
14472;SDS011;7322;50.872;4.386;2022-07-23T08:37:51;7.50;;;6.65;;
14472;SDS011;7322;50.872;4.386;2022-07-23T08:40:19;9.45;;;8.55;;
14472;SDS011;7322;50.872;4.386;2022-07-23T08:42:48;10.02;;;8.38;;
14472;SDS011;7322;50.872;4.386;2022-07-23T08:45:17;9.13;;;8.32;;
14472;SDS011;7322;50.872;4.386;2022-07-23T08:47:46;10.73;;;9.18;;
14472;SDS011;7322;50.872;4.386;2022-07-23T08:50:15;10.55;;;9.27;;
14472;SDS011;7322;50.872;4.386;2022-07-23T08:52:42;9.55;;;8.60;;
14472;SDS011;7322;50.872;4.386;2022-07-23T08:55:09;9.82;;;8.93;;
14472;SDS011;7322;50.872;4.386;2022-07-23T08:57:36;9.13;;;8.02;;
14472;SDS011;7322;50.872;4.386;2022-07-23T09:00:05;9.48;;;8.57;;
14472;SDS011;7322;50.872;4.386;2022-07-23T09:02:38;10.30;;;9.30;;
14472;SDS011;7322;50.872;4.386;2022-07-23T09:05:08;10.80;;;9.45;;
14472;SDS011;7322;50.872;4.386;2022-07-23T09:07:36;8.30;;;7.40;;
14472;SDS011;7322;50.872;4.386;2022-07-23T09:10:07;9.00;;;8.20;;
14472;SDS011;7322;50.872;4.386;2022-07-23T09:12:36;9.93;;;8.32;;
14472;SDS011;7322;50.872;4.386;2022-07-23T09:15:06;10.35;;;9.10;;
14472;SDS011;7322;50.872;4.386;2022-07-23T09:17:36;10.65;;;7.88;;
14472;SDS011;7322;50.872;4.386;2022-07-23T09:20:08;10.20;;;8.13;;
14472;SDS011;7322;50.872;4.386;2022-07-23T09:22:36;9.27;;;7.50;;
14472;SDS011;7322;50.872;4.386;2022-07-23T09:25:04;8.80;;;7.25;;
14472;SDS011;7322;50.872;4.386;2022-07-23T09:27:46;7.72;;;7.03;;
14472;SDS011;7322;50.872;4.386;2022-07-23T09:30:16;7.63;;;6.53;;
14472;SDS011;7322;50.872;4.386;2022-07-23T09:32:44;7.50;;;6.70;;
14472;SDS011;7322;50.872;4.386;2022-07-23T09:35:42;7.63;;;7.03;;
14472;SDS011;7322;50.872;4.386;2022-07-23T09:38:10;9.80;;;8.70;;
14472;SDS011;7322;50.872;4.386;2022-07-23T09:40:37;10.43;;;7.45;;
14472;SDS011;7322;50.872;4.386;2022-07-23T09:43:04;8.00;;;6.60;;
14472;SDS011;7322;50.872;4.386;2022-07-23T09:45:32;7.80;;;7.07;;
14472;SDS011;7322;50.872;4.386;2022-07-23T09:48:09;8.40;;;6.38;;
14472;SDS011;7322;50.872;4.386;2022-07-23T09:50:37;8.98;;;6.68;;
14472;SDS011;7322;50.872;4.386;2022-07-23T09:53:04;8.57;;;7.20;;
14472;SDS011;7322;50.872;4.386;2022-07-23T09:55:32;8.55;;;6.95;;
14472;SDS011;7322;50.872;4.386;2022-07-23T09:58:02;8.98;;;7.25;;
14472;SDS011;7322;50.872;4.386;2022-07-23T10:00:29;6.95;;;6.25;;
14472;SDS011;7322;50.872;4.386;2022-07-23T10:02:59;7.95;;;6.45;;
14472;SDS011;7322;50.872;4.386;2022-07-23T10:05:26;5.90;;;5.30;;
14472;SDS011;7322;50.872;4.386;2022-07-23T10:07:54;6.85;;;6.18;;
14472;SDS011;7322;50.872;4.386;2022-07-23T10:10:21;7.22;;;5.80;;
14472;SDS011;7322;50.872;4.386;2022-07-23T10:12:50;7.25;;;5.63;;
14472;SDS011;7322;50.872;4.386;2022-07-23T10:15:36;6.70;;;6.10;;
14472;SDS011;7322;50.872;4.386;2022-07-23T10:18:04;8.13;;;6.40;;
14472;SDS011;7322;50.872;4.386;2022-07-23T10:20:31;6.80;;;5.95;;
14472;SDS011;7322;50.872;4.386;2022-07-23T10:23:00;8.10;;;6.35;;
14472;SDS011;7322;50.872;4.386;2022-07-23T10:25:36;6.97;;;5.32;;
14472;SDS011;7322;50.872;4.386;2022-07-23T10:28:16;6.50;;;5.82;;
14472;SDS011;7322;50.872;4.386;2022-07-23T10:31:02;5.72;;;4.68;;
14472;SDS011;7322;50.872;4.386;2022-07-23T10:33:41;5.97;;;4.60;;
14472;SDS011;7322;50.872;4.386;2022-07-23T10:36:16;6.45;;;5.15;;
14472;SDS011;7322;50.872;4.386;2022-07-23T10:38:48;4.95;;;4.40;;
14472;SDS011;7322;50.872;4.386;2022-07-23T10:44:09;5.00;;;4.03;;
14472;SDS011;7322;50.872;4.386;2022-07-23T10:49:42;9.50;;;4.50;;
14472;SDS011;7322;50.872;4.386;2022-07-23T10:52:23;8.32;;;4.80;;
14472;SDS011;7322;50.872;4.386;2022-07-23T10:54:52;5.88;;;4.88;;
14472;SDS011;7322;50.872;4.386;2022-07-23T10:57:21;7.38;;;5.60;;
14472;SDS011;7322;50.872;4.386;2022-07-23T11:02:39;5.88;;;5.35;;
14472;SDS011;7322;50.872;4.386;2022-07-23T11:05:08;4.57;;;4.18;;
14472;SDS011;7322;50.872;4.386;2022-07-23T11:07:36;6.35;;;4.32;;
14472;SDS011;7322;50.872;4.386;2022-07-23T11:10:32;6.93;;;5.10;;
14472;SDS011;7322;50.872;4.386;2022-07-23T11:16:07;5.43;;;4.80;;
14472;SDS011;7322;50.872;4.386;2022-07-23T11:18:57;7.10;;;5.05;;
14472;SDS011;7322;50.872;4.386;2022-07-23T11:24:16;7.00;;;6.20;;
14472;SDS011;7322;50.872;4.386;2022-07-23T11:26:47;5.72;;;5.22;;
14472;SDS011;7322;50.872;4.386;2022-07-23T11:32:17;5.88;;;5.07;;
14472;SDS011;7322;50.872;4.386;2022-07-23T11:35:01;7.03;;;5.15;;
14472;SDS011;7322;50.872;4.386;2022-07-23T11:37:32;5.30;;;4.80;;
14472;SDS011;7322;50.872;4.386;2022-07-23T11:40:03;7.80;;;6.38;;
14472;SDS011;7322;50.872;4.386;2022-07-23T11:42:36;6.88;;;6.07;;
14472;SDS011;7322;50.872;4.386;2022-07-23T11:45:05;6.65;;;5.95;;
14472;SDS011;7322;50.872;4.386;2022-07-23T11:47:33;7.18;;;5.28;;
14472;SDS011;7322;50.872;4.386;2022-07-23T11:50:03;6.57;;;4.72;;
14472;SDS011;7322;50.872;4.386;2022-07-23T11:52:33;7.07;;;6.28;;
14472;SDS011;7322;50.872;4.386;2022-07-23T11:55:02;6.00;;;5.40;;
14472;SDS011;7322;50.872;4.386;2022-07-23T11:57:32;17.02;;;15.48;;
14472;SDS011;7322;50.872;4.386;2022-07-23T12:00:01;7.85;;;5.00;;
14472;SDS011;7322;50.872;4.386;2022-07-23T12:02:32;6.40;;;5.60;;
14472;SDS011;7322;50.872;4.386;2022-07-23T12:04:59;6.85;;;5.70;;
14472;SDS011;7322;50.872;4.386;2022-07-23T12:07:28;9.98;;;5.82;;
14472;SDS011;7322;50.872;4.386;2022-07-23T12:09:58;8.00;;;6.55;;
14472;SDS011;7322;50.872;4.386;2022-07-23T12:12:27;8.55;;;6.18;;
14472;SDS011;7322;50.872;4.386;2022-07-23T12:15:02;9.10;;;6.10;;
14472;SDS011;7322;50.872;4.386;2022-07-23T12:17:33;7.70;;;6.47;;
14472;SDS011;7322;50.872;4.386;2022-07-23T12:20:02;8.07;;;6.55;;
14472;SDS011;7322;50.872;4.386;2022-07-23T12:22:37;6.90;;;5.93;;
14472;SDS011;7322;50.872;4.386;2022-07-23T12:25:07;5.75;;;5.13;;
14472;SDS011;7322;50.872;4.386;2022-07-23T12:27:37;6.88;;;6.18;;
14472;SDS011;7322;50.872;4.386;2022-07-23T12:30:20;7.60;;;6.80;;
14472;SDS011;7322;50.872;4.386;2022-07-23T12:32:49;8.38;;;7.65;;
14472;SDS011;7322;50.872;4.386;2022-07-23T12:35:18;7.57;;;6.20;;
14472;SDS011;7322;50.872;4.386;2022-07-23T12:37:47;7.28;;;6.18;;
14472;SDS011;7322;50.872;4.386;2022-07-23T12:40:27;7.20;;;6.50;;
14472;SDS011;7322;50.872;4.386;2022-07-23T12:42:57;6.75;;;4.80;;
14472;SDS011;7322;50.872;4.386;2022-07-23T12:45:26;6.03;;;4.70;;
14472;SDS011;7322;50.872;4.386;2022-07-23T12:47:59;6.03;;;5.43;;
14472;SDS011;7322;50.872;4.386;2022-07-23T12:50:32;6.10;;;5.50;;
14472;SDS011;7322;50.872;4.386;2022-07-23T12:53:05;5.63;;;5.10;;
14472;SDS011;7322;50.872;4.386;2022-07-23T12:55:37;7.82;;;6.65;;
14472;SDS011;7322;50.872;4.386;2022-07-23T12:58:12;7.20;;;6.50;;
14472;SDS011;7322;50.872;4.386;2022-07-23T13:00:56;6.80;;;6.03;;
14472;SDS011;7322;50.872;4.386;2022-07-23T13:03:28;6.95;;;6.25;;
14472;SDS011;7322;50.872;4.386;2022-07-23T13:05:57;6.57;;;5.90;;
14472;SDS011;7322;50.872;4.386;2022-07-23T13:08:28;6.65;;;5.93;;
14472;SDS011;7322;50.872;4.386;2022-07-23T13:10:56;7.57;;;6.45;;
14472;SDS011;7322;50.872;4.386;2022-07-23T13:13:25;8.68;;;7.15;;
14472;SDS011;7322;50.872;4.386;2022-07-23T13:15:54;7.03;;;6.40;;
14472;SDS011;7322;50.872;4.386;2022-07-23T13:18:22;8.55;;;5.75;;
14472;SDS011;7322;50.872;4.386;2022-07-23T13:20:49;6.82;;;6.20;;
14472;SDS011;7322;50.872;4.386;2022-07-23T13:23:17;8.88;;;5.72;;
14472;SDS011;7322;50.872;4.386;2022-07-23T13:25:45;6.13;;;5.63;;
14472;SDS011;7322;50.872;4.386;2022-07-23T13:28:13;7.32;;;5.65;;
14472;SDS011;7322;50.872;4.386;2022-07-23T13:30:41;7.78;;;5.30;;
14472;SDS011;7322;50.872;4.386;2022-07-23T13:33:10;5.95;;;4.97;;
14472;SDS011;7322;50.872;4.386;2022-07-23T13:35:37;5.38;;;4.53;;
14472;SDS011;7322;50.872;4.386;2022-07-23T13:38:05;5.47;;;4.47;;
14472;SDS011;7322;50.872;4.386;2022-07-23T13:40:34;6.25;;;4.10;;
14472;SDS011;7322;50.872;4.386;2022-07-23T13:43:04;5.53;;;4.00;;
14472;SDS011;7322;50.872;4.386;2022-07-23T13:45:32;5.00;;;4.45;;
14472;SDS011;7322;50.872;4.386;2022-07-23T13:47:59;5.18;;;4.50;;
14472;SDS011;7322;50.872;4.386;2022-07-23T13:50:26;5.50;;;4.88;;
14472;SDS011;7322;50.872;4.386;2022-07-23T13:52:53;6.18;;;4.50;;
14472;SDS011;7322;50.872;4.386;2022-07-23T13:55:20;6.85;;;4.13;;
14472;SDS011;7322;50.872;4.386;2022-07-23T13:57:47;4.55;;;4.15;;
14472;SDS011;7322;50.872;4.386;2022-07-23T14:00:17;5.45;;;3.90;;
14472;SDS011;7322;50.872;4.386;2022-07-23T14:02:44;5.63;;;4.38;;
14472;SDS011;7322;50.872;4.386;2022-07-23T14:05:12;4.57;;;4.18;;
14472;SDS011;7322;50.872;4.386;2022-07-23T14:07:39;5.18;;;4.20;;
14472;SDS011;7322;50.872;4.386;2022-07-23T14:10:08;7.18;;;4.50;;
14472;SDS011;7322;50.872;4.386;2022-07-23T14:12:39;6.35;;;4.30;;
14472;SDS011;7322;50.872;4.386;2022-07-23T14:15:13;4.78;;;4.25;;
14472;SDS011;7322;50.872;4.386;2022-07-23T14:17:51;4.30;;;3.88;;
14472;SDS011;7322;50.872;4.386;2022-07-23T14:20:32;6.47;;;4.43;;
14472;SDS011;7322;50.872;4.386;2022-07-23T14:23:00;4.93;;;4.40;;
14472;SDS011;7322;50.872;4.386;2022-07-23T14:25:27;6.40;;;4.45;;
14472;SDS011;7322;50.872;4.386;2022-07-23T14:27:55;6.15;;;4.05;;
14472;SDS011;7322;50.872;4.386;2022-07-23T14:30:23;5.38;;;4.65;;
14472;SDS011;7322;50.872;4.386;2022-07-23T14:32:55;4.85;;;3.90;;
14472;SDS011;7322;50.872;4.386;2022-07-23T14:35:23;5.90;;;4.13;;
14472;SDS011;7322;50.872;4.386;2022-07-23T14:37:51;4.72;;;3.83;;
14472;SDS011;7322;50.872;4.386;2022-07-23T14:40:23;7.03;;;4.60;;
14472;SDS011;7322;50.872;4.386;2022-07-23T14:42:52;5.25;;;4.78;;
14472;SDS011;7322;50.872;4.386;2022-07-23T14:45:19;4.70;;;4.18;;
14472;SDS011;7322;50.872;4.386;2022-07-23T14:47:52;4.50;;;4.10;;
14472;SDS011;7322;50.872;4.386;2022-07-23T14:50:22;4.80;;;4.30;;
14472;SDS011;7322;50.872;4.386;2022-07-23T14:52:49;5.38;;;4.82;;
14472;SDS011;7322;50.872;4.386;2022-07-23T14:55:21;5.88;;;5.30;;
14472;SDS011;7322;50.872;4.386;2022-07-23T14:57:56;5.35;;;4.80;;
14472;SDS011;7322;50.872;4.386;2022-07-23T15:00:23;6.32;;;4.85;;
14472;SDS011;7322;50.872;4.386;2022-07-23T15:02:50;5.65;;;4.60;;
14472;SDS011;7322;50.872;4.386;2022-07-23T15:05:28;5.72;;;4.97;;
14472;SDS011;7322;50.872;4.386;2022-07-23T15:08:06;5.60;;;4.38;;
14472;SDS011;7322;50.872;4.386;2022-07-23T15:10:35;5.05;;;4.63;;
14472;SDS011;7322;50.872;4.386;2022-07-23T15:13:02;8.18;;;6.18;;
14472;SDS011;7322;50.872;4.386;2022-07-23T15:15:30;6.63;;;4.78;;
14472;SDS011;7322;50.872;4.386;2022-07-23T15:17:59;5.40;;;4.18;;
14472;SDS011;7322;50.872;4.386;2022-07-23T15:20:28;4.88;;;4.47;;
14472;SDS011;7322;50.872;4.386;2022-07-23T15:22:57;6.40;;;4.68;;